Time;durP1;ratioP1;P1;durP2;ratioP2;P2;SDS_P1;SDS_P2;PMS_P1;PMS_P2;Temp;Humidity;BMP_temperature;BMP_pressure;BME280_temperature;BME280_humidity;BME280_pressure;Samples;Min_cycle;Max_cycle;Signal;HPM_P1;HPM_P2
2021/06/25 00:01:04;;;;;;;8.90;8.05;;;;;;;16.59;100.00;101004.13;3577128;40;20091;-52
2021/06/25 00:03:31;;;;;;;11.75;8.23;;;;;;;16.58;100.00;100999.81;3576488;40;20092;-56
2021/06/25 00:05:58;;;;;;;8.70;7.88;;;;;;;16.56;100.00;100991.22;3577335;40;20485;-56
2021/06/25 00:08:25;;;;;;;10.07;8.13;;;;;;;16.61;100.00;100994.69;3576095;40;20049;-51
2021/06/25 00:10:52;;;;;;;50.38;26.10;;;;;;;16.83;100.00;100995.72;3576565;40;20369;-53
2021/06/25 00:13:19;;;;;;;21.65;14.82;;;;;;;16.55;100.00;100982.59;3576273;40;20053;-51
2021/06/25 00:15:46;;;;;;;12.68;10.38;;;;;;;16.46;100.00;100979.09;3576520;40;20061;-53
2021/06/25 00:18:14;;;;;;;15.32;10.80;;;;;;;16.46;100.00;100977.38;3576816;40;20126;-54
2021/06/25 00:20:41;;;;;;;14.05;9.88;;;;;;;16.82;100.00;100981.03;3576143;40;20093;-50
2021/06/25 00:23:08;;;;;;;9.90;8.05;;;;;;;17.11;100.00;100978.56;3577346;40;20103;-55
2021/06/25 00:25:35;;;;;;;10.75;8.27;;;;;;;17.42;100.00;100982.09;3576179;40;20059;-54
2021/06/25 00:28:03;;;;;;;9.98;7.95;;;;;;;17.53;99.58;100980.41;3577093;40;20349;-53
2021/06/25 00:30:30;;;;;;;9.48;7.95;;;;;;;16.96;100.00;100984.56;3576217;40;20048;-50
2021/06/25 00:32:57;;;;;;;8.63;7.90;;;;;;;16.61;100.00;100976.59;3576724;40;20422;-51
2021/06/25 00:35:25;;;;;;;10.10;8.35;;;;;;;16.55;100.00;100981.75;3573109;40;20055;-53
2021/06/25 00:37:52;;;;;;;10.57;9.25;;;;;;;16.29;100.00;100971.22;3576605;40;20096;-52
2021/06/25 00:40:19;;;;;;;12.98;11.13;;;;;;;16.24;100.00;100978.94;3576362;40;20089;-51
2021/06/25 00:42:46;;;;;;;11.05;9.75;;;;;;;16.23;100.00;100966.88;3576050;40;20052;-51
2021/06/25 00:45:16;;;;;;;12.18;9.88;;;;;;;16.48;100.00;100975.66;3576740;40;20096;-51
2021/06/25 00:47:49;;;;;;;13.45;10.43;;;;;;;16.90;100.00;100971.59;3575772;40;20464;-54
2021/06/25 00:50:25;;;;;;;13.85;10.48;;;;;;;17.29;100.00;100976.03;3576267;40;20108;-52
2021/06/25 00:52:55;;;;;;;11.73;10.32;;;;;;;17.25;100.00;100976.03;3576398;40;20049;-54
2021/06/25 00:55:26;;;;;;;13.93;10.95;;;;;;;17.12;100.00;100976.84;3576060;40;20152;-53
2021/06/25 00:57:56;;;;;;;11.27;10.00;;;;;;;17.05;100.00;100975.94;3576643;40;20109;-51
2021/06/25 01:00:23;;;;;;;11.80;10.60;;;;;;;16.87;100.00;100973.28;3575777;40;20068;-50
2021/06/25 01:02:51;;;;;;;11.30;10.02;;;;;;;16.49;100.00;100971.34;3576203;40;20053;-56
2021/06/25 01:05:18;;;;;;;25.67;15.80;;;;;;;16.54;100.00;100959.28;3576453;40;20068;-51
2021/06/25 01:07:46;;;;;;;26.73;17.15;;;;;;;16.69;100.00;100950.78;3575946;40;20422;-55
2021/06/25 01:10:13;;;;;;;35.47;20.40;;;;;;;16.54;100.00;100952.41;3576583;40;20077;-48
2021/06/25 01:12:42;;;;;;;29.73;16.98;;;;;;;16.57;100.00;100954.16;3575230;40;20056;-53
2021/06/25 01:15:12;;;;;;;16.98;14.45;;;;;;;16.63;100.00;100955.91;3575120;40;20056;-50
2021/06/25 01:17:42;;;;;;;14.55;12.00;;;;;;;16.44;100.00;100952.34;3575861;40;20104;-52
2021/06/25 01:20:13;;;;;;;13.43;11.75;;;;;;;16.59;100.00;100957.59;3574954;40;20052;-54
2021/06/25 01:22:41;;;;;;;14.90;11.93;;;;;;;16.76;100.00;100957.72;3576084;40;20043;-52
2021/06/25 01:25:16;;;;;;;15.32;13.55;;;;;;;16.58;100.00;100955.00;3573246;40;20055;-52
2021/06/25 01:27:46;;;;;;;18.42;14.73;;;;;;;16.49;100.00;100948.94;3575642;40;20085;-52
2021/06/25 01:30:18;;;;;;;17.52;13.50;;;;;;;16.96;100.00;100950.94;3576432;40;20184;-53
2021/06/25 01:32:45;;;;;;;15.52;13.75;;;;;;;16.50;100.00;100939.44;3574941;40;20451;-53
2021/06/25 01:35:13;;;;;;;15.32;13.82;;;;;;;16.53;100.00;100945.50;3576575;40;20808;-53
2021/06/25 01:37:41;;;;;;;17.52;13.75;;;;;;;16.72;100.00;100930.13;3576275;40;20092;-53
2021/06/25 01:40:11;;;;;;;18.90;14.65;;;;;;;17.22;100.00;100932.88;3571907;40;20068;-51
2021/06/25 01:42:40;;;;;;;16.58;13.30;;;;;;;17.22;100.00;100943.22;3575998;40;20063;-51
2021/06/25 01:45:13;;;;;;;14.55;12.93;;;;;;;17.11;100.00;100933.72;3576887;40;20048;-52
2021/06/25 01:47:43;;;;;;;14.73;13.18;;;;;;;17.26;100.00;100931.16;3575796;40;20061;-54
2021/06/25 01:50:13;;;;;;;16.55;13.77;;;;;;;17.11;100.00;100934.59;3575169;40;20492;-55
2021/06/25 01:52:48;;;;;;;17.70;14.05;;;;;;;16.56;100.00;100926.56;3575663;40;20112;-55
2021/06/25 01:55:15;;;;;;;15.27;13.63;;;;;;;16.83;100.00;100920.69;3575030;40;20060;-49
2021/06/25 01:57:43;;;;;;;17.35;14.35;;;;;;;16.42;100.00;100917.88;3575698;40;20128;-49
2021/06/25 02:00:11;;;;;;;18.13;16.02;;;;;;;16.21;100.00;100910.88;3575080;40;20377;-49
2021/06/25 02:02:39;;;;;;;18.48;15.93;;;;;;;16.12;100.00;100900.47;3575514;40;20053;-54
2021/06/25 02:05:08;;;;;;;19.27;14.82;;;;;;;16.03;100.00;100903.84;3576637;40;20051;-51
2021/06/25 02:07:35;;;;;;;19.83;16.02;;;;;;;16.02;100.00;100892.66;3575777;40;20063;-55
2021/06/25 02:10:05;;;;;;;18.95;15.57;;;;;;;15.86;100.00;100893.44;3576575;40;20200;-54
2021/06/25 02:12:32;;;;;;;23.83;16.45;;;;;;;15.98;100.00;100892.63;3575854;40;20238;-52
2021/06/25 02:14:59;;;;;;;23.92;19.00;;;;;;;16.47;100.00;100900.69;3576873;40;20037;-53
2021/06/25 02:17:26;;;;;;;18.42;15.32;;;;;;;16.66;100.00;100899.03;3575231;40;20080;-49
2021/06/25 02:19:53;;;;;;;18.42;15.05;;;;;;;16.67;100.00;100890.41;3576230;40;20403;-47
2021/06/25 02:22:20;;;;;;;20.20;15.95;;;;;;;16.53;100.00;100896.38;3575767;40;20077;-54
2021/06/25 02:24:47;;;;;;;17.20;15.45;;;;;;;16.34;100.00;100891.13;3575824;40;20082;-50
2021/06/25 02:27:14;;;;;;;23.20;17.92;;;;;;;15.95;100.00;100885.75;3576002;40;20076;-53
2021/06/25 02:29:41;;;;;;;27.02;19.67;;;;;;;16.07;100.00;100881.50;3575706;40;20115;-52
2021/06/25 02:32:08;;;;;;;30.38;23.10;;;;;;;15.99;100.00;100879.75;3574509;40;20053;-52
2021/06/25 02:34:35;;;;;;;20.75;18.10;;;;;;;16.18;100.00;100878.13;3575438;40;20093;-50
2021/06/25 02:37:03;;;;;;;23.73;18.77;;;;;;;16.17;100.00;100883.28;3576270;40;20069;-53
2021/06/25 02:39:29;;;;;;;20.00;17.98;;;;;;;16.20;100.00;100886.75;3575104;40;20573;-51
2021/06/25 02:41:56;;;;;;;22.90;18.98;;;;;;;16.50;100.00;100887.75;3576273;40;20057;-56
2021/06/25 02:44:23;;;;;;;25.60;20.92;;;;;;;16.28;100.00;100891.97;3575502;40;20053;-48
2021/06/25 02:46:51;;;;;;;26.77;21.50;;;;;;;16.28;100.00;100885.06;3575398;40;20093;-52
2021/06/25 02:49:18;;;;;;;25.98;22.05;;;;;;;15.97;100.00;100886.59;3575241;40;20052;-51
2021/06/25 02:51:45;;;;;;;25.90;20.60;;;;;;;15.85;100.00;100878.75;3575554;40;20077;-51
2021/06/25 02:54:12;;;;;;;26.52;22.48;;;;;;;15.75;100.00;100883.00;3576311;40;20052;-52
2021/06/25 02:56:39;;;;;;;28.05;23.52;;;;;;;15.67;100.00;100883.81;3576919;40;20260;-55
2021/06/25 02:59:06;;;;;;;32.25;23.13;;;;;;;15.58;100.00;100894.03;3577655;40;20415;-47
2021/06/25 03:01:33;;;;;;;35.00;23.25;;;;;;;15.85;100.00;100894.25;3576360;40;20072;-56
2021/06/25 03:04:00;;;;;;;30.05;22.95;;;;;;;15.80;100.00;100893.34;3577713;40;20410;-49
2021/06/25 03:06:27;;;;;;;33.15;23.95;;;;;;;15.59;100.00;100891.47;3576752;40;20049;-52
2021/06/25 03:08:54;;;;;;;26.23;22.27;;;;;;;15.69;100.00;100898.44;3577323;40;20089;-54
2021/06/25 03:11:21;;;;;;;27.35;21.42;;;;;;;16.01;100.00;100903.00;3575935;40;20092;-54
2021/06/25 03:13:48;;;;;;;25.05;21.05;;;;;;;15.88;100.00;100891.69;3573739;40;20085;-50
2021/06/25 03:16:16;;;;;;;25.98;20.33;;;;;;;15.76;100.00;100884.75;3575123;40;20063;-54
2021/06/25 03:18:43;;;;;;;33.80;22.38;;;;;;;15.80;100.00;100888.19;3576243;40;20056;-58
2021/06/25 03:21:10;;;;;;;25.73;20.88;;;;;;;15.87;100.00;100897.72;3577254;40;20125;-50
2021/06/25 03:23:37;;;;;;;26.92;21.40;;;;;;;15.78;100.00;100900.25;3576740;40;20089;-47
2021/06/25 03:26:04;;;;;;;27.83;22.10;;;;;;;15.55;100.00;100905.19;3577605;40;20089;-49
2021/06/25 03:28:31;;;;;;;24.10;21.20;;;;;;;15.62;100.00;100904.41;3576918;40;20065;-48
2021/06/25 03:30:58;;;;;;;22.33;19.10;;;;;;;15.86;100.00;100902.91;3576486;40;20097;-57
2021/06/25 03:33:25;;;;;;;24.65;20.33;;;;;;;15.73;100.00;100907.09;3572416;40;20544;-51
2021/06/25 03:35:52;;;;;;;23.67;18.88;;;;;;;15.79;100.00;100907.13;3575690;40;20066;-55
2021/06/25 03:38:19;;;;;;;34.65;24.27;;;;;;;15.76;100.00;100909.69;3576690;40;20060;-52
2021/06/25 03:40:47;;;;;;;28.25;20.58;;;;;;;15.70;100.00;100904.47;3576765;40;20096;-55
2021/06/25 03:43:14;;;;;;;23.38;19.88;;;;;;;15.66;100.00;100907.88;3576528;40;20075;-56
2021/06/25 03:45:41;;;;;;;23.45;20.77;;;;;;;15.58;100.00;100917.25;3575989;40;20697;-55
2021/06/25 03:48:08;;;;;;;23.90;20.67;;;;;;;15.58;100.00;100912.09;3574592;40;20456;-56
2021/06/25 03:50:35;;;;;;;23.05;20.10;;;;;;;15.63;100.00;100920.75;3575484;40;20085;-57
2021/06/25 03:53:03;;;;;;;24.02;19.77;;;;;;;15.65;100.00;100913.91;3576724;40;20068;-54
2021/06/25 03:55:30;;;;;;;24.48;19.35;;;;;;;15.75;100.00;100915.69;3575815;40;20222;-56
2021/06/25 03:57:57;;;;;;;24.90;20.02;;;;;;;15.73;100.00;100912.25;3577283;40;20100;-58
2021/06/25 04:00:24;;;;;;;23.77;19.25;;;;;;;16.00;100.00;100909.03;3578193;40;20060;-52
2021/06/25 04:02:52;;;;;;;21.13;18.38;;;;;;;15.96;100.00;100902.09;3576954;40;20049;-58
2021/06/25 04:05:19;;;;;;;20.83;18.55;;;;;;;16.09;100.00;100898.75;3565095;39;20072;-55
2021/06/25 04:07:46;;;;;;;25.05;19.58;;;;;;;15.96;100.00;100910.72;3578312;40;20550;-56
2021/06/25 04:10:14;;;;;;;20.48;18.40;;;;;;;16.24;100.00;100913.47;3576870;40;20100;-58
2021/06/25 04:12:42;;;;;;;21.05;18.02;;;;;;;16.58;100.00;100917.09;3576489;40;20116;-53
2021/06/25 04:15:10;;;;;;;20.65;17.83;;;;;;;16.79;100.00;100911.19;3575276;40;20153;-55
2021/06/25 04:17:37;;;;;;;21.08;18.52;;;;;;;16.49;100.00;100917.03;3576346;40;20057;-54
2021/06/25 04:20:05;;;;;;;23.02;18.25;;;;;;;16.37;100.00;100917.00;3577279;40;20092;-56
2021/06/25 04:22:32;;;;;;;23.67;19.45;;;;;;;16.75;100.00;100920.66;3576376;40;20089;-54
2021/06/25 04:24:59;;;;;;;27.73;20.55;;;;;;;16.89;100.00;100912.09;3577204;40;20120;-56
2021/06/25 04:27:26;;;;;;;29.80;21.02;;;;;;;16.98;100.00;100910.41;3575912;40;20471;-58
2021/06/25 04:29:54;;;;;;;23.98;18.00;;;;;;;17.16;100.00;100913.91;3576573;40;20089;-53
2021/06/25 04:32:22;;;;;;;21.48;17.70;;;;;;;16.73;100.00;100922.38;3576480;40;20037;-53
2021/06/25 04:34:49;;;;;;;21.45;17.48;;;;;;;17.02;100.00;100922.47;3576642;40;20108;-55
2021/06/25 04:37:17;;;;;;;24.27;17.70;;;;;;;17.41;100.00;100932.91;3576482;40;20119;-53
2021/06/25 04:39:44;;;;;;;25.98;19.35;;;;;;;17.20;100.00;100913.03;3576238;40;20101;-53
2021/06/25 04:42:12;;;;;;;22.02;17.55;;;;;;;17.00;100.00;100916.41;3576943;40;20041;-56
2021/06/25 04:44:39;;;;;;;20.20;16.92;;;;;;;17.41;100.00;100922.56;3576109;40;20056;-57
2021/06/25 04:47:07;;;;;;;16.70;15.20;;;;;;;17.19;100.00;100919.91;3576720;40;20088;-54
2021/06/25 04:49:37;;;;;;;16.48;14.77;;;;;;;17.34;100.00;100919.09;3575912;40;20057;-53
2021/06/25 04:52:05;;;;;;;19.67;15.45;;;;;;;17.21;100.00;100920.81;3577144;40;20104;-54
2021/06/25 04:54:32;;;;;;;19.60;14.73;;;;;;;17.60;100.00;100916.53;3575931;40;20096;-54
2021/06/25 04:57:00;;;;;;;16.80;15.00;;;;;;;17.80;100.00;100922.63;3576826;40;20073;-53
2021/06/25 04:59:27;;;;;;;16.73;13.50;;;;;;;18.35;99.49;100919.09;3575801;40;20397;-53
2021/06/25 05:01:55;;;;;;;15.80;13.60;;;;;;;17.69;100.00;100926.88;3576849;40;20549;-53
2021/06/25 05:04:22;;;;;;;17.45;14.43;;;;;;;18.08;100.00;100932.97;3576424;40;20079;-52
2021/06/25 05:06:49;;;;;;;17.02;14.68;;;;;;;18.36;99.39;100932.91;3576397;40;20088;-53
2021/06/25 05:09:16;;;;;;;16.38;14.77;;;;;;;18.33;98.93;100932.03;3576331;40;20107;-54
2021/06/25 05:11:43;;;;;;;17.85;13.85;;;;;;;18.52;99.79;100934.59;3577929;40;20087;-54
2021/06/25 05:14:10;;;;;;;18.15;14.35;;;;;;;18.62;97.73;100935.41;3577244;40;20044;-53
2021/06/25 05:16:38;;;;;;;15.07;13.48;;;;;;;18.81;97.11;100927.59;3576284;40;20774;-54
2021/06/25 05:19:05;;;;;;;15.02;12.63;;;;;;;19.10;97.00;100928.34;3576861;40;20057;-51
2021/06/25 05:21:32;;;;;;;22.98;15.15;;;;;;;18.97;98.20;100927.53;3575830;40;20100;-53
2021/06/25 05:23:59;;;;;;;18.35;13.57;;;;;;;19.45;93.88;100926.34;3576140;40;20157;-51
2021/06/25 05:26:26;;;;;;;18.02;14.07;;;;;;;19.26;93.96;100925.63;3572895;40;20098;-54
2021/06/25 05:28:53;;;;;;;18.27;13.55;;;;;;;19.43;92.49;100935.03;3576451;40;20056;-56
2021/06/25 05:31:20;;;;;;;19.88;14.57;;;;;;;19.41;93.36;100944.56;3576353;40;20092;-54
2021/06/25 05:33:47;;;;;;;17.00;13.43;;;;;;;19.66;91.34;100935.78;3576290;40;20071;-54
2021/06/25 05:36:14;;;;;;;16.58;13.93;;;;;;;19.42;94.16;100925.53;3576621;40;20323;-52
2021/06/25 05:38:41;;;;;;;16.48;13.38;;;;;;;19.74;92.21;100927.94;3575615;40;20054;-55
2021/06/25 05:41:09;;;;;;;16.95;13.00;;;;;;;20.02;93.19;100937.19;3574561;40;20072;-54
2021/06/25 05:43:36;;;;;;;16.80;12.73;;;;;;;20.02;90.05;100938.94;3575927;40;20097;-55
2021/06/25 05:46:04;;;;;;;17.35;13.40;;;;;;;20.39;89.66;100948.97;3576924;40;20068;-52
2021/06/25 05:48:31;;;;;;;16.45;12.80;;;;;;;20.12;88.92;100937.13;3575872;40;20088;-52
2021/06/25 05:50:58;;;;;;;15.63;12.43;;;;;;;20.51;89.32;100943.66;3576709;40;20055;-56
2021/06/25 05:53:25;;;;;;;14.95;11.63;;;;;;;20.93;87.85;100938.81;3573052;40;20037;-53
2021/06/25 05:55:54;;;;;;;13.00;11.48;;;;;;;21.26;84.78;100932.28;3576636;40;20051;-53
2021/06/25 05:58:21;;;;;;;13.60;11.45;;;;;;;21.35;84.44;100932.16;3576177;40;20057;-55
2021/06/25 06:00:48;;;;;;;11.65;10.45;;;;;;;;;;3576148;40;20362;-55
2021/06/25 06:03:15;;;;;;;12.75;10.32;;;;;;;21.54;82.49;100933.63;3576158;40;20052;-55
2021/06/25 06:05:42;;;;;;;11.73;10.38;;;;;;;21.82;79.91;100941.00;3575435;40;20435;-52
2021/06/25 06:08:09;;;;;;;12.95;7.97;;;;;;;21.87;76.96;100939.19;3574486;40;20782;-53
2021/06/25 06:10:36;;;;;;;7.82;5.80;;;;;;;21.04;75.08;100939.56;3575443;40;20085;-53
2021/06/25 06:13:04;;;;;;;8.73;6.35;;;;;;;21.30;73.07;100940.03;3576548;40;20055;-51
2021/06/25 06:15:32;;;;;;;6.63;5.90;;;;;;;21.11;75.85;100938.56;3575537;40;20089;-54
2021/06/25 06:18:01;;;;;;;9.00;5.80;;;;;;;21.06;77.90;100951.66;3576490;40;20837;-55
2021/06/25 06:20:28;;;;;;;8.43;6.60;;;;;;;20.98;77.09;100950.03;3572778;40;20124;-52
2021/06/25 06:31:21;;;;;;;;;;;;;;;20.97;79.27;100954.38;3575055;40;20056;-55
2021/06/25 06:33:58;;;;;;;8.35;7.38;;;;;;;20.29;83.23;100958.59;3575792;40;19944;-53
2021/06/25 06:36:31;;;;;;;9.05;7.57;;;;;;;20.55;81.18;100959.22;3572485;40;20101;-51
2021/06/25 06:39:00;;;;;;;9.55;8.05;;;;;;;20.71;80.60;100959.91;3576247;40;20418;-54
2021/06/25 06:41:28;;;;;;;10.52;8.40;;;;;;;20.52;82.68;100968.78;3571448;40;20037;-55
2021/06/25 06:43:57;;;;;;;9.88;8.73;;;;;;;20.72;81.44;100976.41;3576214;40;20096;-52
2021/06/25 06:46:24;;;;;;;9.02;7.38;;;;;;;21.02;79.74;100973.41;3575778;40;20089;-53
2021/06/25 06:48:52;;;;;;;9.75;7.90;;;;;;;21.04;77.49;100971.66;3575929;40;20064;-52
2021/06/25 06:51:21;;;;;;;10.05;8.60;;;;;;;20.82;81.79;100983.22;3575559;40;20065;-53
2021/06/25 06:53:48;;;;;;;9.52;7.70;;;;;;;20.97;80.15;100979.56;3575730;40;20694;-53
2021/06/25 06:56:18;;;;;;;10.50;8.77;;;;;;;20.56;78.62;100981.75;3575785;40;20148;-52
2021/06/25 06:58:46;;;;;;;11.65;9.18;;;;;;;21.13;78.66;100975.88;3575130;40;20055;-53
2021/06/25 07:01:13;;;;;;;8.98;7.63;;;;;;;21.06;74.80;100977.69;3575820;40;20442;-55
2021/06/25 07:04:02;;;;;;;11.57;8.65;;;;;;;20.75;76.41;100978.94;3576016;40;20382;-54
2021/06/25 07:06:29;;;;;;;11.52;9.40;;;;;;;21.07;77.13;100992.44;3575671;40;20057;-53
2021/06/25 07:08:56;;;;;;;12.30;9.52;;;;;;;20.72;79.35;100990.28;3575873;40;20059;-58
2021/06/25 07:11:23;;;;;;;11.18;9.48;;;;;;;20.63;78.55;100984.31;3572436;40;20078;-53
2021/06/25 07:13:52;;;;;;;13.13;9.95;;;;;;;20.37;81.25;100987.13;3574518;40;20041;-57
2021/06/25 07:16:19;;;;;;;12.80;10.15;;;;;;;20.74;79.74;100985.91;3575458;40;20080;-53
2021/06/25 07:18:47;;;;;;;12.23;10.45;;;;;;;21.25;78.32;100980.06;3575237;40;20075;-51
2021/06/25 07:21:15;;;;;;;14.52;11.10;;;;;;;21.13;79.51;100988.91;3575559;40;20330;-53
2021/06/25 07:23:42;;;;;;;14.60;10.55;;;;;;;20.78;80.93;100984.97;3575236;40;20068;-56
2021/06/25 07:26:09;;;;;;;14.95;10.82;;;;;;;20.82;79.74;100989.28;3573013;40;20059;-52
2021/06/25 07:28:36;;;;;;;15.30;11.02;;;;;;;21.01;77.46;100987.31;3575061;40;20092;-53
2021/06/25 07:31:04;;;;;;;12.70;10.85;;;;;;;21.34;76.26;100991.25;3576001;40;20092;-52
2021/06/25 07:33:31;;;;;;;12.23;9.00;;;;;;;21.40;76.83;100992.03;3574888;40;20048;-53
2021/06/25 07:35:58;;;;;;;13.90;9.57;;;;;;;21.07;76.30;100992.44;3575856;40;20093;-56
2021/06/25 07:38:25;;;;;;;10.95;7.68;;;;;;;21.36;73.65;100993.84;3572134;40;20339;-53
2021/06/25 07:40:52;;;;;;;11.05;9.95;;;;;;;21.44;77.48;100994.56;3576472;40;20080;-55
2021/06/25 07:43:20;;;;;;;14.02;9.35;;;;;;;22.10;74.22;100988.34;3576995;40;20068;-53
2021/06/25 07:45:48;;;;;;;9.77;7.47;;;;;;;21.42;70.24;100987.69;3576528;40;20085;-53
2021/06/25 07:48:15;;;;;;;12.02;6.68;;;;;;;21.96;69.48;100985.97;3576701;40;20116;-52
2021/06/25 07:50:43;;;;;;;13.73;9.75;;;;;;;21.80;72.87;100985.34;3576233;40;20077;-55
2021/06/25 07:53:10;;;;;;;13.60;9.57;;;;;;;21.35;73.76;100976.47;3575379;40;20565;-57
2021/06/25 07:55:45;;;;;;;13.07;8.95;;;;;;;21.75;74.80;100978.47;3576314;40;20052;-54
2021/06/25 07:58:13;;;;;;;11.15;8.82;;;;;;;21.49;71.63;100982.38;3575493;40;20353;-55
2021/06/25 08:00:40;;;;;;;12.15;9.13;;;;;;;21.59;72.15;100986.56;3576412;40;20053;-52
2021/06/25 08:03:08;;;;;;;13.77;10.10;;;;;;;21.50;71.54;100981.47;3577692;40;20067;-52
2021/06/25 08:05:36;;;;;;;10.43;7.55;;;;;;;21.89;69.52;100979.13;3576385;40;20060;-53
2021/06/25 08:08:04;;;;;;;13.57;8.18;;;;;;;21.38;71.31;100970.34;3577432;40;20756;-54
2021/06/25 08:10:32;;;;;;;11.13;8.48;;;;;;;22.03;70.87;100976.28;3575968;40;20040;-53
2021/06/25 08:13:00;;;;;;;15.88;10.40;;;;;;;21.74;72.54;100982.84;3577336;40;20049;-55
2021/06/25 08:15:27;;;;;;;11.25;9.55;;;;;;;21.60;72.79;100987.41;3575699;40;20078;-52
2021/06/25 08:17:54;;;;;;;13.70;9.60;;;;;;;21.49;73.88;100984.09;3577000;40;20076;-57
2021/06/25 08:20:21;;;;;;;12.60;9.57;;;;;;;21.40;76.09;100985.09;3576985;40;20077;-56
2021/06/25 08:22:49;;;;;;;13.48;9.55;;;;;;;21.42;75.16;100987.69;3576976;40;20076;-53
2021/06/25 08:25:16;;;;;;;11.75;9.18;;;;;;;21.09;74.54;100997.63;3576900;40;20060;-53
2021/06/25 08:27:43;;;;;;;13.40;9.75;;;;;;;21.14;75.19;100992.38;3576509;40;20070;-53
2021/06/25 08:30:11;;;;;;;11.35;9.80;;;;;;;20.81;78.70;100997.13;3577370;40;20360;-56
2021/06/25 08:32:38;;;;;;;10.68;9.07;;;;;;;21.10;75.32;100995.00;3576445;40;20096;-53
2021/06/25 08:35:07;;;;;;;13.05;10.75;;;;;;;21.01;74.18;100994.25;3577124;40;20116;-52
2021/06/25 08:37:34;;;;;;;14.38;10.52;;;;;;;20.48;77.42;100993.16;3575687;40;20049;-57
2021/06/25 08:40:04;;;;;;;11.93;10.57;;;;;;;21.05;75.57;100998.56;3576913;40;20614;-56
2021/06/25 08:42:32;;;;;;;11.52;9.73;;;;;;;20.65;77.48;100995.53;3576237;40;20049;-54
2021/06/25 08:44:59;;;;;;;14.68;10.68;;;;;;;20.38;78.03;100996.66;3577457;40;20053;-55
2021/06/25 08:47:27;;;;;;;15.57;10.57;;;;;;;20.66;76.47;100998.16;3573261;40;20081;-53
2021/06/25 08:50:03;;;;;;;15.68;10.95;;;;;;;20.62;76.37;100998.19;3577141;40;20056;-53
2021/06/25 08:52:30;;;;;;;12.68;10.20;;;;;;;20.46;76.60;101000.06;3575358;40;20064;-53
2021/06/25 08:54:57;;;;;;;13.48;10.98;;;;;;;20.30;79.23;100995.00;3577018;40;20092;-54
2021/06/25 08:57:24;;;;;;;11.43;9.85;;;;;;;20.42;80.34;101006.16;3576235;40;20060;-52
2021/06/25 08:59:51;;;;;;;12.57;9.73;;;;;;;20.36;79.65;100994.09;3576688;40;20053;-53
2021/06/25 09:02:19;;;;;;;15.35;9.15;;;;;;;20.34;80.86;100998.44;3576268;40;20112;-53
2021/06/25 09:04:47;;;;;;;10.48;9.10;;;;;;;20.58;79.59;100992.16;3576126;40;20057;-52
2021/06/25 09:07:15;;;;;;;14.25;10.70;;;;;;;20.69;78.42;100994.63;3576900;40;20938;-56
2021/06/25 09:09:47;;;;;;;13.10;10.63;;;;;;;21.02;75.90;100991.63;3576181;40;20480;-52
2021/06/25 09:12:23;;;;;;;15.93;10.90;;;;;;;21.16;75.65;100977.56;3575297;40;20226;-51
2021/06/25 09:15:06;;;;;;;15.30;10.07;;;;;;;21.04;76.72;100986.41;3576817;40;20049;-55
2021/06/25 09:17:35;;;;;;;12.80;9.63;;;;;;;21.40;72.56;100981.59;3573610;40;20073;-52
2021/06/25 09:20:05;;;;;;;15.45;10.98;;;;;;;21.35;73.13;100982.56;3576888;40;20052;-51
2021/06/25 09:22:48;;;;;;;13.68;9.68;;;;;;;21.96;69.58;100985.97;3575960;40;20068;-55
2021/06/25 09:25:15;;;;;;;11.95;9.00;;;;;;;21.95;69.40;100984.22;3575125;40;20072;-54
2021/06/25 09:27:43;;;;;;;13.00;9.43;;;;;;;22.15;66.86;100975.25;3575443;40;20061;-52
2021/06/25 09:30:13;;;;;;;10.25;8.45;;;;;;;22.32;65.97;100975.78;3574844;40;20063;-52
2021/06/25 09:32:43;;;;;;;14.77;9.55;;;;;;;21.70;70.41;100969.88;3575812;40;20053;-54
2021/06/25 09:35:16;;;;;;;17.67;9.25;;;;;;;21.40;69.21;100976.41;3576774;40;20400;-53
2021/06/25 09:37:48;;;;;;;10.40;8.18;;;;;;;22.42;63.20;100974.75;3575635;40;20558;-54
2021/06/25 09:40:17;;;;;;;11.57;7.35;;;;;;;22.70;61.88;100972.47;3576299;40;20418;-54
2021/06/25 09:43:06;;;;;;;11.40;7.32;;;;;;;22.93;61.32;100969.44;3575799;40;20056;-52
2021/06/25 09:45:34;;;;;;;10.52;7.55;;;;;;;23.47;62.57;100971.69;3572454;40;20085;-53
2021/06/25 09:48:01;;;;;;;11.45;7.97;;;;;;;23.85;60.60;100969.97;3576673;40;20053;-55
2021/06/25 09:50:32;;;;;;;11.02;7.82;;;;;;;22.83;59.77;100967.84;3575983;40;20033;-52
2021/06/25 09:53:04;;;;;;;11.90;8.85;;;;;;;22.39;62.30;100961.75;3577188;40;20044;-54
2021/06/25 09:55:55;;;;;;;10.95;7.60;;;;;;;23.15;61.34;100964.56;3573182;40;20333;-50
2021/06/25 10:01:26;;;;;;;10.00;7.13;;;;;;;23.79;58.23;100965.72;3576329;40;20064;-53
2021/06/25 10:03:57;;;;;;;;;;;;;;;25.25;55.13;100967.88;3576170;40;20122;-50
2021/06/25 10:06:31;;;;;;;9.52;6.35;;;;;;;24.64;54.79;100961.81;3572853;40;19975;-53
2021/06/25 10:08:59;;;;;;;8.18;5.47;;;;;;;25.71;52.51;100965.56;3576454;40;20084;-51
2021/06/25 10:11:28;;;;;;;7.93;5.80;;;;;;;25.61;51.49;100963.25;3572593;40;20069;-52
2021/06/25 10:13:57;;;;;;;11.23;5.93;;;;;;;26.65;49.05;100958.84;3576455;40;20351;-55
2021/06/25 10:16:25;;;;;;;8.38;6.55;;;;;;;26.13;49.21;100960.66;3575765;40;20089;-54
2021/06/25 10:18:58;;;;;;;11.40;7.13;;;;;;;26.71;48.32;100965.63;3576475;40;20226;-53
2021/06/25 10:21:32;;;;;;;8.25;6.43;;;;;;;25.77;49.91;100957.50;3572509;40;20072;-52
2021/06/25 10:24:01;;;;;;;14.73;6.93;;;;;;;27.40;46.03;100969.13;3576606;40;20049;-51
2021/06/25 10:26:29;;;;;;;10.77;7.90;;;;;;;25.75;48.73;100947.06;3572982;40;20339;-54
2021/06/25 10:28:57;;;;;;;8.15;6.07;;;;;;;28.35;43.83;100954.69;3576263;40;20045;-51
2021/06/25 10:31:25;;;;;;;8.13;6.28;;;;;;;29.91;39.89;100965.81;3575595;40;20084;-51
2021/06/25 10:33:55;;;;;;;7.35;5.35;;;;;;;28.60;42.33;100963.19;3574924;40;20059;-54
2021/06/25 10:36:27;;;;;;;9.85;6.32;;;;;;;28.03;44.21;100969.22;3575436;40;20444;-55
2021/06/25 10:39:02;;;;;;;9.98;6.38;;;;;;;27.04;45.18;100963.50;3576198;40;20052;-54
2021/06/25 10:41:51;;;;;;;7.43;6.43;;;;;;;28.86;42.09;100969.91;3570347;40;20456;-51
2021/06/25 10:44:35;;;;;;;7.88;7.13;;;;;;;27.54;43.55;100956.25;3575106;40;20081;-54
2021/06/25 10:47:25;;;;;;;8.73;6.53;;;;;;;26.77;44.89;100962.78;3576467;40;20051;-52
2021/06/25 10:49:58;;;;;;;9.07;6.88;;;;;;;24.82;52.12;100958.66;3576566;40;20372;-51
2021/06/25 10:52:29;;;;;;;8.95;7.18;;;;;;;24.67;50.29;100953.84;3573236;40;20347;-51
2021/06/25 10:55:01;;;;;;;9.93;6.75;;;;;;;24.02;54.49;100946.84;3576594;40;20053;-50
2021/06/25 10:57:33;;;;;;;10.45;6.00;;;;;;;24.32;54.55;100960.88;3572790;40;20057;-52
2021/06/25 11:00:02;;;;;;;6.28;5.38;;;;;;;24.26;54.97;100957.56;3576626;40;20091;-53
2021/06/25 11:02:59;;;;;;;10.65;5.88;;;;;;;23.97;58.69;100959.19;3575431;40;20093;-48
2021/06/25 11:05:26;;;;;;;7.80;6.20;;;;;;;23.78;59.22;100952.69;3564221;40;20092;-55
2021/06/25 11:07:54;;;;;;;8.60;6.35;;;;;;;23.53;62.42;100957.66;3576849;40;20091;-52
2021/06/25 11:10:28;;;;;;;9.15;6.55;;;;;;;23.44;63.27;100963.94;3576053;40;20052;-57
2021/06/25 11:13:13;;;;;;;14.35;7.28;;;;;;;23.93;60.84;100952.31;3576213;40;20135;-50
2021/06/25 11:15:46;;;;;;;10.57;7.13;;;;;;;24.45;56.66;100961.44;3573945;40;20088;-54
2021/06/25 11:18:22;;;;;;;9.07;6.93;;;;;;;24.18;57.15;100957.78;3575709;40;20053;-48
2021/06/25 11:21:04;;;;;;;11.57;7.20;;;;;;;24.74;55.42;100965.00;3577300;40;20064;-48
2021/06/25 11:23:37;;;;;;;8.38;7.07;;;;;;;27.14;47.95;100964.91;3574040;40;20085;-55
2021/06/25 11:26:16;;;;;;;11.57;7.97;;;;;;;27.92;44.46;100962.63;3577662;40;20104;-48
2021/06/25 11:28:46;;;;;;;9.98;8.15;;;;;;;26.55;47.27;100962.72;3576470;40;20116;-52
2021/06/25 11:31:13;;;;;;;9.43;8.52;;;;;;;25.83;49.82;100962.53;3575773;40;20055;-54